sensor_id;sensor_type;location;lat;lon;timestamp;P1;durP1;ratioP1;P2;durP2;ratioP2
55003;SDS011;40900;52.710;6.438;2022-08-01T00:00:22;12.38;;;9.27;;
55003;SDS011;40900;52.710;6.438;2022-08-01T00:02:47;13.30;;;9.52;;
55003;SDS011;40900;52.710;6.438;2022-08-01T00:05:13;12.05;;;8.82;;
55003;SDS011;40900;52.710;6.438;2022-08-01T00:07:39;11.35;;;9.15;;
55003;SDS011;40900;52.710;6.438;2022-08-01T00:10:06;13.85;;;9.10;;
55003;SDS011;40900;52.710;6.438;2022-08-01T00:12:34;11.02;;;9.05;;
55003;SDS011;40900;52.710;6.438;2022-08-01T00:15:00;14.10;;;8.52;;
55003;SDS011;40900;52.710;6.438;2022-08-01T00:17:26;9.63;;;8.63;;
55003;SDS011;40900;52.710;6.438;2022-08-01T00:19:52;13.52;;;8.93;;
55003;SDS011;40900;52.710;6.438;2022-08-01T00:22:18;11.27;;;8.43;;
55003;SDS011;40900;52.710;6.438;2022-08-01T00:24:43;10.93;;;8.70;;
55003;SDS011;40900;52.710;6.438;2022-08-01T00:27:09;12.27;;;8.93;;
55003;SDS011;40900;52.710;6.438;2022-08-01T00:29:35;13.48;;;8.77;;
55003;SDS011;40900;52.710;6.438;2022-08-01T00:32:00;13.50;;;8.70;;
55003;SDS011;40900;52.710;6.438;2022-08-01T00:34:26;11.95;;;8.77;;
55003;SDS011;40900;52.710;6.438;2022-08-01T00:36:52;12.10;;;8.85;;
55003;SDS011;40900;52.710;6.438;2022-08-01T00:39:17;14.23;;;9.38;;
55003;SDS011;40900;52.710;6.438;2022-08-01T00:41:43;13.52;;;9.60;;
55003;SDS011;40900;52.710;6.438;2022-08-01T00:44:08;14.35;;;10.45;;
55003;SDS011;40900;52.710;6.438;2022-08-01T00:46:34;11.82;;;9.50;;
55003;SDS011;40900;52.710;6.438;2022-08-01T00:49:00;11.57;;;9.85;;
55003;SDS011;40900;52.710;6.438;2022-08-01T00:51:26;13.05;;;9.73;;
55003;SDS011;40900;52.710;6.438;2022-08-01T00:53:52;14.93;;;10.85;;
55003;SDS011;40900;52.710;6.438;2022-08-01T00:56:24;16.80;;;10.93;;
55003;SDS011;40900;52.710;6.438;2022-08-01T00:58:50;13.80;;;10.18;;
55003;SDS011;40900;52.710;6.438;2022-08-01T01:01:17;13.70;;;10.23;;
55003;SDS011;40900;52.710;6.438;2022-08-01T01:03:45;12.60;;;9.98;;
55003;SDS011;40900;52.710;6.438;2022-08-01T01:09:08;11.88;;;9.10;;
55003;SDS011;40900;52.710;6.438;2022-08-01T01:11:47;12.98;;;9.73;;
55003;SDS011;40900;52.710;6.438;2022-08-01T01:14:27;12.50;;;8.60;;
55003;SDS011;40900;52.710;6.438;2022-08-01T01:17:12;11.60;;;9.73;;
55003;SDS011;40900;52.710;6.438;2022-08-01T01:19:48;10.55;;;8.38;;
55003;SDS011;40900;52.710;6.438;2022-08-01T01:27:51;11.35;;;8.77;;
55003;SDS011;40900;52.710;6.438;2022-08-01T01:30:28;9.38;;;8.23;;
55003;SDS011;40900;52.710;6.438;2022-08-01T01:32:55;15.80;;;9.68;;
55003;SDS011;40900;52.710;6.438;2022-08-01T01:35:26;12.38;;;9.07;;
55003;SDS011;40900;52.710;6.438;2022-08-01T01:38:07;16.13;;;8.85;;
55003;SDS011;40900;52.710;6.438;2022-08-01T01:40:37;12.80;;;9.18;;
55003;SDS011;40900;52.710;6.438;2022-08-01T01:43:04;11.55;;;8.38;;
55003;SDS011;40900;52.710;6.438;2022-08-01T01:45:35;10.93;;;8.50;;
55003;SDS011;40900;52.710;6.438;2022-08-01T01:48:01;10.55;;;8.50;;
55003;SDS011;40900;52.710;6.438;2022-08-01T01:50:28;10.90;;;7.72;;
55003;SDS011;40900;52.710;6.438;2022-08-01T01:52:55;10.93;;;7.65;;
55003;SDS011;40900;52.710;6.438;2022-08-01T01:55:22;10.40;;;7.85;;
55003;SDS011;40900;52.710;6.438;2022-08-01T01:57:50;8.93;;;7.47;;
55003;SDS011;40900;52.710;6.438;2022-08-01T02:00:17;8.93;;;8.02;;
55003;SDS011;40900;52.710;6.438;2022-08-01T02:02:43;11.52;;;7.93;;
55003;SDS011;40900;52.710;6.438;2022-08-01T02:05:11;9.00;;;7.55;;
55003;SDS011;40900;52.710;6.438;2022-08-01T02:07:38;11.68;;;7.22;;
55003;SDS011;40900;52.710;6.438;2022-08-01T02:10:05;8.18;;;7.03;;
55003;SDS011;40900;52.710;6.438;2022-08-01T02:12:33;10.32;;;7.70;;
55003;SDS011;40900;52.710;6.438;2022-08-01T02:15:02;9.45;;;7.28;;
55003;SDS011;40900;52.710;6.438;2022-08-01T02:17:29;9.40;;;7.60;;
55003;SDS011;40900;52.710;6.438;2022-08-01T02:19:56;7.95;;;7.15;;
55003;SDS011;40900;52.710;6.438;2022-08-01T02:22:45;9.85;;;7.20;;
55003;SDS011;40900;52.710;6.438;2022-08-01T02:25:20;9.47;;;6.23;;
55003;SDS011;40900;52.710;6.438;2022-08-01T02:27:59;6.85;;;5.72;;
55003;SDS011;40900;52.710;6.438;2022-08-01T02:30:31;7.50;;;5.50;;
55003;SDS011;40900;52.710;6.438;2022-08-01T02:33:05;6.53;;;5.18;;
55003;SDS011;40900;52.710;6.438;2022-08-01T02:35:36;5.28;;;4.60;;
55003;SDS011;40900;52.710;6.438;2022-08-01T02:38:05;6.25;;;4.88;;
55003;SDS011;40900;52.710;6.438;2022-08-01T02:40:36;6.78;;;5.13;;
55003;SDS011;40900;52.710;6.438;2022-08-01T02:43:05;7.85;;;5.22;;
55003;SDS011;40900;52.710;6.438;2022-08-01T02:45:31;7.43;;;6.38;;
55003;SDS011;40900;52.710;6.438;2022-08-01T02:48:01;8.05;;;5.90;;
55003;SDS011;40900;52.710;6.438;2022-08-01T02:50:33;7.80;;;5.80;;
55003;SDS011;40900;52.710;6.438;2022-08-01T02:53:00;8.32;;;6.15;;
55003;SDS011;40900;52.710;6.438;2022-08-01T02:55:27;8.98;;;6.07;;
55003;SDS011;40900;52.710;6.438;2022-08-01T02:57:54;8.50;;;5.95;;
55003;SDS011;40900;52.710;6.438;2022-08-01T03:00:21;10.20;;;6.50;;
55003;SDS011;40900;52.710;6.438;2022-08-01T03:02:48;10.38;;;6.22;;
55003;SDS011;40900;52.710;6.438;2022-08-01T03:05:19;7.95;;;6.43;;
55003;SDS011;40900;52.710;6.438;2022-08-01T03:07:46;7.35;;;6.30;;
55003;SDS011;40900;52.710;6.438;2022-08-01T03:10:13;7.88;;;6.20;;
55003;SDS011;40900;52.710;6.438;2022-08-01T03:12:41;9.95;;;6.60;;
55003;SDS011;40900;52.710;6.438;2022-08-01T03:15:08;12.55;;;6.40;;
55003;SDS011;40900;52.710;6.438;2022-08-01T03:17:35;8.70;;;6.20;;
55003;SDS011;40900;52.710;6.438;2022-08-01T03:20:03;8.65;;;6.55;;
55003;SDS011;40900;52.710;6.438;2022-08-01T03:22:29;7.80;;;6.43;;
55003;SDS011;40900;52.710;6.438;2022-08-01T03:24:58;8.85;;;6.68;;
55003;SDS011;40900;52.710;6.438;2022-08-01T03:27:26;8.95;;;6.18;;
55003;SDS011;40900;52.710;6.438;2022-08-01T03:29:54;8.30;;;6.20;;
55003;SDS011;40900;52.710;6.438;2022-08-01T03:32:21;8.15;;;5.75;;
55003;SDS011;40900;52.710;6.438;2022-08-01T03:34:48;8.48;;;4.78;;
55003;SDS011;40900;52.710;6.438;2022-08-01T03:40:09;9.30;;;4.30;;
55003;SDS011;40900;52.710;6.438;2022-08-01T03:42:47;9.43;;;3.55;;
55003;SDS011;40900;52.710;6.438;2022-08-01T03:45:25;6.63;;;3.13;;
55003;SDS011;40900;52.710;6.438;2022-08-01T03:47:56;4.43;;;2.85;;
55003;SDS011;40900;52.710;6.438;2022-08-01T03:50:26;6.28;;;2.50;;
55003;SDS011;40900;52.710;6.438;2022-08-01T03:52:54;5.47;;;2.70;;
55003;SDS011;40900;52.710;6.438;2022-08-01T03:55:24;6.82;;;3.00;;
55003;SDS011;40900;52.710;6.438;2022-08-01T03:57:50;6.00;;;2.67;;
55003;SDS011;40900;52.710;6.438;2022-08-01T04:00:17;6.05;;;3.15;;
55003;SDS011;40900;52.710;6.438;2022-08-01T04:02:49;8.15;;;3.10;;
55003;SDS011;40900;52.710;6.438;2022-08-01T04:05:15;6.30;;;3.30;;
55003;SDS011;40900;52.710;6.438;2022-08-01T04:07:45;9.18;;;3.15;;
55003;SDS011;40900;52.710;6.438;2022-08-01T04:10:23;7.78;;;3.38;;
55003;SDS011;40900;52.710;6.438;2022-08-01T04:12:49;5.03;;;2.67;;
55003;SDS011;40900;52.710;6.438;2022-08-01T04:15:15;7.10;;;2.90;;
55003;SDS011;40900;52.710;6.438;2022-08-01T04:17:42;8.73;;;3.00;;
55003;SDS011;40900;52.710;6.438;2022-08-01T04:20:08;5.38;;;2.60;;
55003;SDS011;40900;52.710;6.438;2022-08-01T04:22:34;5.85;;;2.70;;
55003;SDS011;40900;52.710;6.438;2022-08-01T04:25:01;7.82;;;3.20;;
55003;SDS011;40900;52.710;6.438;2022-08-01T04:27:30;7.00;;;2.83;;
55003;SDS011;40900;52.710;6.438;2022-08-01T04:30:00;7.03;;;3.10;;
55003;SDS011;40900;52.710;6.438;2022-08-01T04:32:27;6.22;;;3.00;;
55003;SDS011;40900;52.710;6.438;2022-08-01T04:34:55;6.85;;;2.80;;
55003;SDS011;40900;52.710;6.438;2022-08-01T04:37:25;11.80;;;3.38;;
55003;SDS011;40900;52.710;6.438;2022-08-01T04:39:52;8.70;;;3.13;;
55003;SDS011;40900;52.710;6.438;2022-08-01T04:42:21;6.13;;;2.90;;
55003;SDS011;40900;52.710;6.438;2022-08-01T04:44:47;7.25;;;3.13;;
55003;SDS011;40900;52.710;6.438;2022-08-01T04:47:13;5.57;;;3.00;;
55003;SDS011;40900;52.710;6.438;2022-08-01T04:49:39;8.88;;;3.10;;
55003;SDS011;40900;52.710;6.438;2022-08-01T04:52:06;10.77;;;2.90;;
55003;SDS011;40900;52.710;6.438;2022-08-01T04:54:33;7.93;;;3.15;;
55003;SDS011;40900;52.710;6.438;2022-08-01T04:57:05;7.07;;;2.80;;
55003;SDS011;40900;52.710;6.438;2022-08-01T04:59:32;8.85;;;3.10;;
55003;SDS011;40900;52.710;6.438;2022-08-01T05:02:10;7.22;;;3.20;;
55003;SDS011;40900;52.710;6.438;2022-08-01T05:04:43;9.57;;;3.08;;
55003;SDS011;40900;52.710;6.438;2022-08-01T05:07:10;14.50;;;3.45;;
55003;SDS011;40900;52.710;6.438;2022-08-01T05:09:37;11.48;;;3.50;;
55003;SDS011;40900;52.710;6.438;2022-08-01T05:12:06;8.02;;;3.10;;
55003;SDS011;40900;52.710;6.438;2022-08-01T05:14:33;11.30;;;3.15;;
55003;SDS011;40900;52.710;6.438;2022-08-01T05:17:03;10.45;;;3.50;;
55003;SDS011;40900;52.710;6.438;2022-08-01T05:19:32;11.68;;;3.45;;
55003;SDS011;40900;52.710;6.438;2022-08-01T05:21:59;10.63;;;3.80;;
55003;SDS011;40900;52.710;6.438;2022-08-01T05:24:33;10.50;;;3.28;;
55003;SDS011;40900;52.710;6.438;2022-08-01T05:27:00;13.45;;;3.83;;
55003;SDS011;40900;52.710;6.438;2022-08-01T05:29:26;13.30;;;3.58;;
55003;SDS011;40900;52.710;6.438;2022-08-01T05:31:52;16.70;;;4.18;;
55003;SDS011;40900;52.710;6.438;2022-08-01T05:34:19;12.90;;;3.80;;
55003;SDS011;40900;52.710;6.438;2022-08-01T05:36:46;14.30;;;4.45;;
55003;SDS011;40900;52.710;6.438;2022-08-01T05:39:12;15.48;;;4.20;;
55003;SDS011;40900;52.710;6.438;2022-08-01T05:41:38;9.75;;;4.03;;
55003;SDS011;40900;52.710;6.438;2022-08-01T05:44:04;13.43;;;3.85;;
55003;SDS011;40900;52.710;6.438;2022-08-01T05:46:30;16.23;;;4.25;;
55003;SDS011;40900;52.710;6.438;2022-08-01T05:48:59;12.55;;;3.70;;
55003;SDS011;40900;52.710;6.438;2022-08-01T05:51:25;13.20;;;3.72;;
55003;SDS011;40900;52.710;6.438;2022-08-01T05:53:51;12.23;;;3.97;;
55003;SDS011;40900;52.710;6.438;2022-08-01T05:56:17;13.10;;;4.32;;
55003;SDS011;40900;52.710;6.438;2022-08-01T05:58:43;21.55;;;4.60;;
55003;SDS011;40900;52.710;6.438;2022-08-01T06:01:09;16.58;;;4.78;;
55003;SDS011;40900;52.710;6.438;2022-08-01T06:03:35;14.10;;;3.55;;
55003;SDS011;40900;52.710;6.438;2022-08-01T06:06:01;13.90;;;3.90;;
55003;SDS011;40900;52.710;6.438;2022-08-01T06:08:27;20.70;;;4.53;;
55003;SDS011;40900;52.710;6.438;2022-08-01T06:10:54;10.75;;;4.05;;
55003;SDS011;40900;52.710;6.438;2022-08-01T06:13:19;17.48;;;4.53;;
55003;SDS011;40900;52.710;6.438;2022-08-01T06:15:45;16.58;;;4.35;;
55003;SDS011;40900;52.710;6.438;2022-08-01T06:18:12;18.83;;;4.03;;
55003;SDS011;40900;52.710;6.438;2022-08-01T06:20:38;17.17;;;4.18;;
55003;SDS011;40900;52.710;6.438;2022-08-01T06:23:04;17.15;;;3.80;;
55003;SDS011;40900;52.710;6.438;2022-08-01T06:25:29;13.77;;;3.50;;
55003;SDS011;40900;52.710;6.438;2022-08-01T06:27:55;12.73;;;4.03;;
55003;SDS011;40900;52.710;6.438;2022-08-01T06:30:21;16.73;;;3.83;;
55003;SDS011;40900;52.710;6.438;2022-08-01T06:32:47;15.07;;;3.83;;
55003;SDS011;40900;52.710;6.438;2022-08-01T06:35:14;13.02;;;3.55;;
55003;SDS011;40900;52.710;6.438;2022-08-01T06:37:40;13.27;;;4.18;;
55003;SDS011;40900;52.710;6.438;2022-08-01T06:40:07;15.30;;;3.70;;
55003;SDS011;40900;52.710;6.438;2022-08-01T06:42:35;15.48;;;4.05;;
55003;SDS011;40900;52.710;6.438;2022-08-01T06:45:02;22.58;;;4.15;;
55003;SDS011;40900;52.710;6.438;2022-08-01T06:47:32;19.52;;;3.90;;
55003;SDS011;40900;52.710;6.438;2022-08-01T06:49:58;17.45;;;4.90;;
55003;SDS011;40900;52.710;6.438;2022-08-01T06:52:23;17.40;;;3.80;;
55003;SDS011;40900;52.710;6.438;2022-08-01T06:54:49;18.90;;;4.60;;
55003;SDS011;40900;52.710;6.438;2022-08-01T06:57:15;19.40;;;4.18;;
55003;SDS011;40900;52.710;6.438;2022-08-01T06:59:41;19.55;;;4.75;;
55003;SDS011;40900;52.710;6.438;2022-08-01T07:02:07;19.15;;;4.00;;
55003;SDS011;40900;52.710;6.438;2022-08-01T07:04:33;22.08;;;4.63;;
55003;SDS011;40900;52.710;6.438;2022-08-01T07:06:59;18.38;;;4.53;;
55003;SDS011;40900;52.710;6.438;2022-08-01T07:09:25;19.65;;;4.53;;
55003;SDS011;40900;52.710;6.438;2022-08-01T07:11:51;19.05;;;4.20;;
55003;SDS011;40900;52.710;6.438;2022-08-01T07:14:19;17.73;;;4.20;;
55003;SDS011;40900;52.710;6.438;2022-08-01T07:16:45;21.38;;;3.80;;
55003;SDS011;40900;52.710;6.438;2022-08-01T07:19:11;16.45;;;4.00;;
55003;SDS011;40900;52.710;6.438;2022-08-01T07:21:37;20.15;;;4.22;;
55003;SDS011;40900;52.710;6.438;2022-08-01T07:24:03;18.75;;;3.67;;
55003;SDS011;40900;52.710;6.438;2022-08-01T07:26:30;17.38;;;4.07;;
55003;SDS011;40900;52.710;6.438;2022-08-01T07:28:56;15.60;;;3.40;;
55003;SDS011;40900;52.710;6.438;2022-08-01T07:31:22;17.70;;;4.13;;
55003;SDS011;40900;52.710;6.438;2022-08-01T07:33:48;17.85;;;3.90;;
55003;SDS011;40900;52.710;6.438;2022-08-01T07:36:18;20.85;;;3.83;;
55003;SDS011;40900;52.710;6.438;2022-08-01T07:38:44;18.08;;;3.88;;
55003;SDS011;40900;52.710;6.438;2022-08-01T07:41:10;13.82;;;3.65;;
55003;SDS011;40900;52.710;6.438;2022-08-01T07:43:36;18.88;;;3.80;;
55003;SDS011;40900;52.710;6.438;2022-08-01T07:46:05;21.00;;;3.72;;
55003;SDS011;40900;52.710;6.438;2022-08-01T07:48:31;19.13;;;4.20;;
55003;SDS011;40900;52.710;6.438;2022-08-01T07:50:57;20.52;;;4.32;;
55003;SDS011;40900;52.710;6.438;2022-08-01T07:53:23;20.42;;;3.97;;
55003;SDS011;40900;52.710;6.438;2022-08-01T07:55:49;20.35;;;4.80;;
55003;SDS011;40900;52.710;6.438;2022-08-01T07:58:15;23.30;;;3.97;;
55003;SDS011;40900;52.710;6.438;2022-08-01T08:00:41;16.38;;;3.47;;
55003;SDS011;40900;52.710;6.438;2022-08-01T08:03:07;20.45;;;3.95;;
55003;SDS011;40900;52.710;6.438;2022-08-01T08:05:33;17.17;;;3.67;;
55003;SDS011;40900;52.710;6.438;2022-08-01T08:08:09;15.07;;;3.58;;
55003;SDS011;40900;52.710;6.438;2022-08-01T08:10:39;15.02;;;3.40;;
55003;SDS011;40900;52.710;6.438;2022-08-01T08:13:04;15.18;;;3.40;;
55003;SDS011;40900;52.710;6.438;2022-08-01T08:15:30;18.10;;;3.88;;
55003;SDS011;40900;52.710;6.438;2022-08-01T08:17:56;23.65;;;3.95;;
55003;SDS011;40900;52.710;6.438;2022-08-01T08:20:21;22.02;;;3.78;;
55003;SDS011;40900;52.710;6.438;2022-08-01T08:22:52;15.70;;;3.60;;
55003;SDS011;40900;52.710;6.438;2022-08-01T08:25:19;15.77;;;3.78;;
55003;SDS011;40900;52.710;6.438;2022-08-01T08:27:47;19.20;;;3.50;;
55003;SDS011;40900;52.710;6.438;2022-08-01T08:30:13;16.73;;;3.50;;
55003;SDS011;40900;52.710;6.438;2022-08-01T08:32:39;14.75;;;3.63;;
55003;SDS011;40900;52.710;6.438;2022-08-01T08:35:06;20.13;;;3.90;;
55003;SDS011;40900;52.710;6.438;2022-08-01T08:37:32;13.70;;;3.25;;
55003;SDS011;40900;52.710;6.438;2022-08-01T08:39:59;22.83;;;3.92;;
55003;SDS011;40900;52.710;6.438;2022-08-01T08:42:25;15.57;;;3.28;;
55003;SDS011;40900;52.710;6.438;2022-08-01T08:44:50;14.93;;;3.45;;
55003;SDS011;40900;52.710;6.438;2022-08-01T08:47:16;20.20;;;3.60;;
55003;SDS011;40900;52.710;6.438;2022-08-01T08:49:44;17.77;;;3.53;;
55003;SDS011;40900;52.710;6.438;2022-08-01T08:52:10;15.75;;;3.35;;
55003;SDS011;40900;52.710;6.438;2022-08-01T08:54:37;15.57;;;3.60;;
55003;SDS011;40900;52.710;6.438;2022-08-01T08:57:05;16.13;;;4.10;;
55003;SDS011;40900;52.710;6.438;2022-08-01T08:59:31;12.65;;;3.08;;
55003;SDS011;40900;52.710;6.438;2022-08-01T09:01:58;15.35;;;3.80;;
55003;SDS011;40900;52.710;6.438;2022-08-01T09:04:24;10.10;;;2.75;;
55003;SDS011;40900;52.710;6.438;2022-08-01T09:06:51;13.43;;;2.50;;
55003;SDS011;40900;52.710;6.438;2022-08-01T09:09:17;14.02;;;2.90;;
55003;SDS011;40900;52.710;6.438;2022-08-01T09:11:43;9.32;;;2.33;;
55003;SDS011;40900;52.710;6.438;2022-08-01T09:14:16;15.02;;;3.33;;
55003;SDS011;40900;52.710;6.438;2022-08-01T09:16:58;10.75;;;3.13;;
55003;SDS011;40900;52.710;6.438;2022-08-01T09:22:04;17.13;;;2.85;;
55003;SDS011;40900;52.710;6.438;2022-08-01T09:24:32;14.68;;;3.03;;
55003;SDS011;40900;52.710;6.438;2022-08-01T09:26:59;10.70;;;2.88;;
55003;SDS011;40900;52.710;6.438;2022-08-01T09:29:30;9.90;;;2.45;;
55003;SDS011;40900;52.710;6.438;2022-08-01T09:31:59;11.13;;;2.40;;
55003;SDS011;40900;52.710;6.438;2022-08-01T09:34:31;11.63;;;2.50;;
55003;SDS011;40900;52.710;6.438;2022-08-01T09:36:58;11.48;;;2.70;;
55003;SDS011;40900;52.710;6.438;2022-08-01T09:39:26;14.57;;;3.50;;
55003;SDS011;40900;52.710;6.438;2022-08-01T09:41:54;12.35;;;2.25;;
55003;SDS011;40900;52.710;6.438;2022-08-01T09:44:36;7.80;;;2.42;;
55003;SDS011;40900;52.710;6.438;2022-08-01T09:47:09;8.35;;;2.33;;
55003;SDS011;40900;52.710;6.438;2022-08-01T09:49:38;8.15;;;2.60;;
55003;SDS011;40900;52.710;6.438;2022-08-01T09:54:42;11.25;;;2.50;;
55003;SDS011;40900;52.710;6.438;2022-08-01T09:59:45;11.57;;;2.42;;
55003;SDS011;40900;52.710;6.438;2022-08-01T10:02:12;12.25;;;2.60;;
55003;SDS011;40900;52.710;6.438;2022-08-01T10:04:49;14.77;;;3.00;;
55003;SDS011;40900;52.710;6.438;2022-08-01T10:07:16;7.28;;;2.50;;
55003;SDS011;40900;52.710;6.438;2022-08-01T10:09:43;11.48;;;2.33;;
55003;SDS011;40900;52.710;6.438;2022-08-01T10:12:11;7.85;;;2.08;;
55003;SDS011;40900;52.710;6.438;2022-08-01T10:14:39;9.00;;;2.17;;
55003;SDS011;40900;52.710;6.438;2022-08-01T10:17:06;7.75;;;2.22;;
55003;SDS011;40900;52.710;6.438;2022-08-01T10:19:34;15.60;;;2.38;;
55003;SDS011;40900;52.710;6.438;2022-08-01T10:22:01;8.25;;;2.40;;
55003;SDS011;40900;52.710;6.438;2022-08-01T10:24:32;11.48;;;2.42;;
55003;SDS011;40900;52.710;6.438;2022-08-01T10:27:03;7.88;;;2.88;;
55003;SDS011;40900;52.710;6.438;2022-08-01T10:29:31;11.82;;;2.60;;
55003;SDS011;40900;52.710;6.438;2022-08-01T10:32:20;10.02;;;2.60;;
55003;SDS011;40900;52.710;6.438;2022-08-01T10:34:48;10.43;;;2.13;;
55003;SDS011;40900;52.710;6.438;2022-08-01T10:37:15;9.50;;;2.30;;
55003;SDS011;40900;52.710;6.438;2022-08-01T10:39:42;8.60;;;2.17;;
55003;SDS011;40900;52.710;6.438;2022-08-01T10:42:09;9.75;;;2.00;;
55003;SDS011;40900;52.710;6.438;2022-08-01T10:44:36;9.40;;;2.42;;
55003;SDS011;40900;52.710;6.438;2022-08-01T10:47:07;9.13;;;2.10;;
55003;SDS011;40900;52.710;6.438;2022-08-01T10:49:37;8.05;;;2.33;;
55003;SDS011;40900;52.710;6.438;2022-08-01T10:52:15;7.20;;;2.40;;
55003;SDS011;40900;52.710;6.438;2022-08-01T10:54:42;6.72;;;2.22;;
55003;SDS011;40900;52.710;6.438;2022-08-01T10:57:09;11.10;;;2.30;;
55003;SDS011;40900;52.710;6.438;2022-08-01T10:59:47;9.18;;;2.40;;
55003;SDS011;40900;52.710;6.438;2022-08-01T11:02:25;6.15;;;2.65;;
55003;SDS011;40900;52.710;6.438;2022-08-01T11:05:04;5.50;;;1.70;;
55003;SDS011;40900;52.710;6.438;2022-08-01T11:12:49;6.82;;;1.75;;
55003;SDS011;40900;52.710;6.438;2022-08-01T11:15:16;6.28;;;1.80;;
55003;SDS011;40900;52.710;6.438;2022-08-01T11:17:49;7.28;;;1.90;;
55003;SDS011;40900;52.710;6.438;2022-08-01T11:20:20;11.80;;;2.17;;
55003;SDS011;40900;52.710;6.438;2022-08-01T11:30:44;5.65;;;1.52;;
55003;SDS011;40900;52.710;6.438;2022-08-01T11:33:18;8.93;;;2.20;;
55003;SDS011;40900;52.710;6.438;2022-08-01T11:38:40;5.47;;;1.80;;
55003;SDS011;40900;52.710;6.438;2022-08-01T11:44:00;12.10;;;1.90;;
55003;SDS011;40900;52.710;6.438;2022-08-01T11:46:52;6.47;;;1.85;;
55003;SDS011;40900;52.710;6.438;2022-08-01T11:54:50;7.22;;;1.90;;
55003;SDS011;40900;52.710;6.438;2022-08-01T11:57:18;8.88;;;1.80;;
55003;SDS011;40900;52.710;6.438;2022-08-01T11:59:55;6.97;;;1.92;;
55003;SDS011;40900;52.710;6.438;2022-08-01T12:05:08;8.40;;;1.92;;
55003;SDS011;40900;52.710;6.438;2022-08-01T12:07:37;5.40;;;1.70;;
55003;SDS011;40900;52.710;6.438;2022-08-01T12:10:05;5.30;;;1.70;;
55003;SDS011;40900;52.710;6.438;2022-08-01T12:12:59;7.00;;;2.00;;
55003;SDS011;40900;52.710;6.438;2022-08-01T12:15:28;6.70;;;1.60;;
55003;SDS011;40900;52.710;6.438;2022-08-01T12:17:57;9.98;;;1.92;;
55003;SDS011;40900;52.710;6.438;2022-08-01T12:20:23;7.60;;;2.13;;
55003;SDS011;40900;52.710;6.438;2022-08-01T12:22:54;4.65;;;1.60;;
55003;SDS011;40900;52.710;6.438;2022-08-01T12:25:21;8.45;;;1.65;;
55003;SDS011;40900;52.710;6.438;2022-08-01T12:27:48;7.40;;;1.90;;
55003;SDS011;40900;52.710;6.438;2022-08-01T12:30:15;6.18;;;1.70;;
55003;SDS011;40900;52.710;6.438;2022-08-01T12:32:46;10.13;;;2.30;;
55003;SDS011;40900;52.710;6.438;2022-08-01T12:35:14;6.15;;;1.65;;
55003;SDS011;40900;52.710;6.438;2022-08-01T12:37:42;5.85;;;1.55;;
55003;SDS011;40900;52.710;6.438;2022-08-01T12:42:39;5.30;;;1.73;;
55003;SDS011;40900;52.710;6.438;2022-08-01T12:45:10;12.13;;;2.08;;
55003;SDS011;40900;52.710;6.438;2022-08-01T12:47:38;6.82;;;1.88;;
55003;SDS011;40900;52.710;6.438;2022-08-01T12:50:05;7.22;;;1.83;;
55003;SDS011;40900;52.710;6.438;2022-08-01T12:52:43;5.13;;;1.40;;
55003;SDS011;40900;52.710;6.438;2022-08-01T12:57:39;6.90;;;1.80;;
55003;SDS011;40900;52.710;6.438;2022-08-01T13:02:44;6.80;;;2.30;;
55003;SDS011;40900;52.710;6.438;2022-08-01T13:05:11;5.93;;;1.75;;
55003;SDS011;40900;52.710;6.438;2022-08-01T13:10:08;3.95;;;1.45;;
55003;SDS011;40900;52.710;6.438;2022-08-01T13:12:35;8.27;;;1.75;;
55003;SDS011;40900;52.710;6.438;2022-08-01T13:17:49;5.53;;;1.73;;
55003;SDS011;40900;52.710;6.438;2022-08-01T13:20:32;6.97;;;1.50;;
55003;SDS011;40900;52.710;6.438;2022-08-01T13:23:12;5.43;;;1.67;;
55003;SDS011;40900;52.710;6.438;2022-08-01T13:25:49;6.95;;;1.77;;
55003;SDS011;40900;52.710;6.438;2022-08-01T13:30:50;5.15;;;1.83;;
55003;SDS011;40900;52.710;6.438;2022-08-01T13:33:17;5.68;;;1.70;;
55003;SDS011;40900;52.710;6.438;2022-08-01T13:35:42;3.28;;;1.30;;
55003;SDS011;40900;52.710;6.438;2022-08-01T13:38:08;6.80;;;1.63;;
55003;SDS011;40900;52.710;6.438;2022-08-01T13:40:34;6.45;;;1.60;;
55003;SDS011;40900;52.710;6.438;2022-08-01T13:43:00;7.68;;;1.70;;
55003;SDS011;40900;52.710;6.438;2022-08-01T13:45:26;6.22;;;1.75;;
55003;SDS011;40900;52.710;6.438;2022-08-01T13:47:51;4.15;;;1.25;;
55003;SDS011;40900;52.710;6.438;2022-08-01T13:50:17;8.52;;;2.03;;
55003;SDS011;40900;52.710;6.438;2022-08-01T13:52:43;6.07;;;1.60;;
55003;SDS011;40900;52.710;6.438;2022-08-01T13:55:09;9.43;;;2.03;;
55003;SDS011;40900;52.710;6.438;2022-08-01T13:57:35;7.47;;;2.05;;
55003;SDS011;40900;52.710;6.438;2022-08-01T14:00:00;4.60;;;1.70;;
55003;SDS011;40900;52.710;6.438;2022-08-01T14:02:26;10.07;;;2.08;;
55003;SDS011;40900;52.710;6.438;2022-08-01T14:04:53;12.05;;;1.90;;
55003;SDS011;40900;52.710;6.438;2022-08-01T14:07:20;7.30;;;1.80;;
55003;SDS011;40900;52.710;6.438;2022-08-01T14:09:46;7.90;;;1.77;;
55003;SDS011;40900;52.710;6.438;2022-08-01T14:12:12;12.57;;;2.03;;
55003;SDS011;40900;52.710;6.438;2022-08-01T14:14:37;6.22;;;1.70;;
55003;SDS011;40900;52.710;6.438;2022-08-01T14:17:03;6.30;;;1.63;;
55003;SDS011;40900;52.710;6.438;2022-08-01T14:19:29;5.97;;;1.77;;
55003;SDS011;40900;52.710;6.438;2022-08-01T14:21:55;5.22;;;1.77;;
55003;SDS011;40900;52.710;6.438;2022-08-01T14:24:22;7.15;;;1.33;;
55003;SDS011;40900;52.710;6.438;2022-08-01T14:26:48;8.95;;;1.42;;
55003;SDS011;40900;52.710;6.438;2022-08-01T14:29:14;8.27;;;1.73;;
55003;SDS011;40900;52.710;6.438;2022-08-01T14:31:40;4.28;;;1.40;;
55003;SDS011;40900;52.710;6.438;2022-08-01T14:34:06;4.47;;;1.40;;
55003;SDS011;40900;52.710;6.438;2022-08-01T14:36:31;8.25;;;1.45;;
55003;SDS011;40900;52.710;6.438;2022-08-01T14:38:57;5.68;;;1.30;;
55003;SDS011;40900;52.710;6.438;2022-08-01T14:41:24;4.85;;;1.75;;
55003;SDS011;40900;52.710;6.438;2022-08-01T14:43:49;6.72;;;1.60;;
55003;SDS011;40900;52.710;6.438;2022-08-01T14:46:15;6.50;;;1.42;;
55003;SDS011;40900;52.710;6.438;2022-08-01T14:48:41;9.43;;;1.83;;
55003;SDS011;40900;52.710;6.438;2022-08-01T14:51:07;5.22;;;1.40;;
55003;SDS011;40900;52.710;6.438;2022-08-01T14:53:33;6.35;;;1.60;;
55003;SDS011;40900;52.710;6.438;2022-08-01T14:56:03;3.72;;;1.73;;
55003;SDS011;40900;52.710;6.438;2022-08-01T14:58:29;7.40;;;1.70;;
55003;SDS011;40900;52.710;6.438;2022-08-01T15:00:55;6.78;;;1.50;;
55003;SDS011;40900;52.710;6.438;2022-08-01T15:03:21;7.07;;;1.63;;
55003;SDS011;40900;52.710;6.438;2022-08-01T15:05:47;6.00;;;1.40;;
55003;SDS011;40900;52.710;6.438;2022-08-01T15:08:12;6.03;;;1.40;;
55003;SDS011;40900;52.710;6.438;2022-08-01T15:10:38;4.50;;;1.65;;
55003;SDS011;40900;52.710;6.438;2022-08-01T15:13:04;6.78;;;1.67;;
55003;SDS011;40900;52.710;6.438;2022-08-01T15:15:30;5.03;;;1.35;;
55003;SDS011;40900;52.710;6.438;2022-08-01T15:17:55;5.97;;;1.83;;
55003;SDS011;40900;52.710;6.438;2022-08-01T15:20:21;7.55;;;2.17;;
55003;SDS011;40900;52.710;6.438;2022-08-01T15:22:47;5.47;;;1.73;;
55003;SDS011;40900;52.710;6.438;2022-08-01T15:25:13;7.10;;;1.80;;
55003;SDS011;40900;52.710;6.438;2022-08-01T15:27:39;5.90;;;1.40;;
55003;SDS011;40900;52.710;6.438;2022-08-01T15:30:05;7.45;;;2.00;;
55003;SDS011;40900;52.710;6.438;2022-08-01T15:32:31;7.38;;;1.75;;
55003;SDS011;40900;52.710;6.438;2022-08-01T15:34:57;5.35;;;1.55;;
55003;SDS011;40900;52.710;6.438;2022-08-01T15:37:23;7.22;;;1.60;;
55003;SDS011;40900;52.710;6.438;2022-08-01T15:39:48;5.55;;;1.77;;
55003;SDS011;40900;52.710;6.438;2022-08-01T15:42:15;6.28;;;1.80;;
55003;SDS011;40900;52.710;6.438;2022-08-01T15:44:41;5.95;;;1.40;;
55003;SDS011;40900;52.710;6.438;2022-08-01T15:47:08;4.05;;;1.25;;